Ana Sayfa
METAR-TAF:

METAR-TAF

Havaalanları :

Medicine Hat, Alberta, Kanada

Enlem: 50-01N, Boylam: 110-43W, yükseklik: 717 m

Güncel hava durumu gözlemi

Rapor saat 04:00 UTC de 56 dakika önce yapıldı.
Rüzgar güneydan 10 kt
Sıcaklık 12°C
Nem 50%
Basınç 1011 hPa
Görüş mesafesi: 14.5 km
Açık gökyüzü

METAR: CYXH 190400Z AUTO 19010KT 9SM CLR 12/02 A2984 RMK SLP113 DENSITY ALT 2600FT

Saat: 22:56 (04:56 UTC)

Tahmin

Rapor saat 23:38 UTC de 5 saat ve 18 dakika önce yapıldı.
Ayın 19'si saat 00 UTC'den ayın 19'si saat 12 UTC'ye kadar geçerli Tahmin
Rüzgar batı/güneybatıdan 12 kt
Görüş mesafesi: 10 km
9000 ft yükseklikte az bulutlu
24000 ft yükseklikte parçalı çok bulutlu

TAF: CYXH 182338Z 1900/1912 24012KT P6SM FEW090 BKN240 RMK NXT FCST BY 190600Z

4.000'den fazla havaalanı için hava durumu gözlemleri ve tahminleri (METAR ve TAF raporları).

Kullanılabilir istasyonlar harita üzerinde sarı ve kırmızı noktalarla gösterilir.

İstasyonun adını görmek için fareyi noktanın üzerinde gezdirin.

Sonrasında hava gözlem ve tahminlerini görmek için tıklayın.

Haritayı değiştirmek için: yaklaştırmak için siyah artı işaretli yeşil düğmeye ve uzaklaştırmak için de eksi işaretli düğmeye hızla tıklayın; bitişik haritalar için yeşil okları kullanın.


METAR-TAF: